sensor_id;sensor_type;location;lat;lon;timestamp;P1;durP1;ratioP1;P2;durP2;ratioP2
850;SDS011;412;51.400;7.480;2023-02-20T00:00:22;4.63;;;4.33;;
850;SDS011;412;51.400;7.480;2023-02-20T00:02:51;5.00;;;4.70;;
850;SDS011;412;51.400;7.480;2023-02-20T00:05:17;5.00;;;4.60;;
850;SDS011;412;51.400;7.480;2023-02-20T00:07:43;5.40;;;4.60;;
850;SDS011;412;51.400;7.480;2023-02-20T00:10:09;5.13;;;4.73;;
850;SDS011;412;51.400;7.480;2023-02-20T00:12:35;5.10;;;4.80;;
850;SDS011;412;51.400;7.480;2023-02-20T00:15:02;6.23;;;5.50;;
850;SDS011;412;51.400;7.480;2023-02-20T00:17:28;4.33;;;4.13;;
850;SDS011;412;51.400;7.480;2023-02-20T00:19:54;5.80;;;5.40;;
850;SDS011;412;51.400;7.480;2023-02-20T00:22:22;5.80;;;5.30;;
850;SDS011;412;51.400;7.480;2023-02-20T00:24:49;6.57;;;5.97;;
850;SDS011;412;51.400;7.480;2023-02-20T00:27:15;6.30;;;5.80;;
850;SDS011;412;51.400;7.480;2023-02-20T00:29:42;6.93;;;6.30;;
850;SDS011;412;51.400;7.480;2023-02-20T00:32:09;7.47;;;6.77;;
850;SDS011;412;51.400;7.480;2023-02-20T00:34:35;9.17;;;6.80;;
850;SDS011;412;51.400;7.480;2023-02-20T00:37:00;7.07;;;6.50;;
850;SDS011;412;51.400;7.480;2023-02-20T00:39:26;7.57;;;6.87;;
850;SDS011;412;51.400;7.480;2023-02-20T00:41:52;9.03;;;7.90;;
850;SDS011;412;51.400;7.480;2023-02-20T00:44:19;9.27;;;8.23;;
850;SDS011;412;51.400;7.480;2023-02-20T00:46:45;8.47;;;7.60;;
850;SDS011;412;51.400;7.480;2023-02-20T00:49:11;8.87;;;7.73;;
850;SDS011;412;51.400;7.480;2023-02-20T00:51:36;9.07;;;7.83;;
850;SDS011;412;51.400;7.480;2023-02-20T00:54:02;9.20;;;8.07;;
850;SDS011;412;51.400;7.480;2023-02-20T00:56:28;9.13;;;7.70;;
850;SDS011;412;51.400;7.480;2023-02-20T00:58:54;12.20;;;8.67;;
850;SDS011;412;51.400;7.480;2023-02-20T01:01:20;9.30;;;8.37;;
850;SDS011;412;51.400;7.480;2023-02-20T01:03:46;9.80;;;8.80;;
850;SDS011;412;51.400;7.480;2023-02-20T01:06:12;8.80;;;8.00;;
850;SDS011;412;51.400;7.480;2023-02-20T01:08:37;10.90;;;9.17;;
850;SDS011;412;51.400;7.480;2023-02-20T01:11:03;10.93;;;8.83;;
850;SDS011;412;51.400;7.480;2023-02-20T01:13:31;10.07;;;8.60;;
850;SDS011;412;51.400;7.480;2023-02-20T01:15:57;9.43;;;8.43;;
850;SDS011;412;51.400;7.480;2023-02-20T01:18:23;12.70;;;9.10;;
850;SDS011;412;51.400;7.480;2023-02-20T01:20:48;9.83;;;8.83;;
850;SDS011;412;51.400;7.480;2023-02-20T01:23:14;11.70;;;9.90;;
850;SDS011;412;51.400;7.480;2023-02-20T01:25:40;17.73;;;10.27;;
850;SDS011;412;51.400;7.480;2023-02-20T01:28:05;12.03;;;9.93;;
850;SDS011;412;51.400;7.480;2023-02-20T01:30:31;13.43;;;10.93;;
850;SDS011;412;51.400;7.480;2023-02-20T01:32:57;14.70;;;11.07;;
850;SDS011;412;51.400;7.480;2023-02-20T01:35:22;12.93;;;11.33;;
850;SDS011;412;51.400;7.480;2023-02-20T01:37:49;14.13;;;11.07;;
850;SDS011;412;51.400;7.480;2023-02-20T01:40:19;14.67;;;11.03;;
850;SDS011;412;51.400;7.480;2023-02-20T01:42:46;13.00;;;10.17;;
850;SDS011;412;51.400;7.480;2023-02-20T01:45:24;14.83;;;11.10;;
850;SDS011;412;51.400;7.480;2023-02-20T01:47:56;15.30;;;10.57;;
850;SDS011;412;51.400;7.480;2023-02-20T01:50:24;13.00;;;11.60;;
850;SDS011;412;51.400;7.480;2023-02-20T01:52:57;16.10;;;11.20;;
850;SDS011;412;51.400;7.480;2023-02-20T01:55:31;13.90;;;11.97;;
850;SDS011;412;51.400;7.480;2023-02-20T01:58:04;12.33;;;10.53;;
850;SDS011;412;51.400;7.480;2023-02-20T02:00:34;12.90;;;10.50;;
850;SDS011;412;51.400;7.480;2023-02-20T02:03:08;14.10;;;11.10;;
850;SDS011;412;51.400;7.480;2023-02-20T02:05:36;12.73;;;10.00;;
850;SDS011;412;51.400;7.480;2023-02-20T02:08:05;13.00;;;9.80;;
850;SDS011;412;51.400;7.480;2023-02-20T02:10:37;11.97;;;9.07;;
850;SDS011;412;51.400;7.480;2023-02-20T02:13:16;11.47;;;9.37;;
850;SDS011;412;51.400;7.480;2023-02-20T02:15:42;12.27;;;10.00;;
850;SDS011;412;51.400;7.480;2023-02-20T02:18:17;11.33;;;10.20;;
850;SDS011;412;51.400;7.480;2023-02-20T02:29:21;12.07;;;9.97;;
850;SDS011;412;51.400;7.480;2023-02-20T02:31:59;13.50;;;10.00;;
850;SDS011;412;51.400;7.480;2023-02-20T02:37:26;11.60;;;10.13;;
850;SDS011;412;51.400;7.480;2023-02-20T02:45:11;15.43;;;10.00;;
850;SDS011;412;51.400;7.480;2023-02-20T02:47:41;11.07;;;9.97;;
850;SDS011;412;51.400;7.480;2023-02-20T02:50:40;14.90;;;10.17;;
850;SDS011;412;51.400;7.480;2023-02-20T02:53:09;11.30;;;9.70;;
850;SDS011;412;51.400;7.480;2023-02-20T02:55:35;12.77;;;11.17;;
850;SDS011;412;51.400;7.480;2023-02-20T02:58:02;10.80;;;9.30;;
850;SDS011;412;51.400;7.480;2023-02-20T03:00:39;11.90;;;9.60;;
850;SDS011;412;51.400;7.480;2023-02-20T03:03:11;10.47;;;9.13;;
850;SDS011;412;51.400;7.480;2023-02-20T03:05:51;11.03;;;9.13;;
850;SDS011;412;51.400;7.480;2023-02-20T03:08:25;14.10;;;9.67;;
850;SDS011;412;51.400;7.480;2023-02-20T03:11:03;13.47;;;9.87;;
850;SDS011;412;51.400;7.480;2023-02-20T03:13:33;13.70;;;9.93;;
850;SDS011;412;51.400;7.480;2023-02-20T03:16:29;11.70;;;10.30;;
850;SDS011;412;51.400;7.480;2023-02-20T03:19:05;13.33;;;9.90;;
850;SDS011;412;51.400;7.480;2023-02-20T03:21:37;10.53;;;9.10;;
850;SDS011;412;51.400;7.480;2023-02-20T03:24:10;11.23;;;9.30;;
850;SDS011;412;51.400;7.480;2023-02-20T03:26:38;13.50;;;9.20;;
850;SDS011;412;51.400;7.480;2023-02-20T03:29:10;12.20;;;8.87;;
850;SDS011;412;51.400;7.480;2023-02-20T03:31:52;10.30;;;8.80;;
850;SDS011;412;51.400;7.480;2023-02-20T03:34:39;16.67;;;9.03;;
850;SDS011;412;51.400;7.480;2023-02-20T03:37:26;11.70;;;8.80;;
850;SDS011;412;51.400;7.480;2023-02-20T03:40:13;11.43;;;8.50;;
850;SDS011;412;51.400;7.480;2023-02-20T03:43:06;9.97;;;8.43;;
850;SDS011;412;51.400;7.480;2023-02-20T03:45:49;10.60;;;9.20;;
850;SDS011;412;51.400;7.480;2023-02-20T03:48:37;10.97;;;9.17;;
850;SDS011;412;51.400;7.480;2023-02-20T03:51:06;10.33;;;9.07;;
850;SDS011;412;51.400;7.480;2023-02-20T03:53:37;11.97;;;8.57;;
850;SDS011;412;51.400;7.480;2023-02-20T03:56:05;11.70;;;9.30;;
850;SDS011;412;51.400;7.480;2023-02-20T03:58:36;9.93;;;8.80;;
850;SDS011;412;51.400;7.480;2023-02-20T04:01:07;13.23;;;9.77;;
850;SDS011;412;51.400;7.480;2023-02-20T04:03:35;10.23;;;9.00;;
850;SDS011;412;51.400;7.480;2023-02-20T04:06:05;12.53;;;9.10;;
850;SDS011;412;51.400;7.480;2023-02-20T04:08:35;14.17;;;10.20;;
850;SDS011;412;51.400;7.480;2023-02-20T04:11:06;13.50;;;9.43;;
850;SDS011;412;51.400;7.480;2023-02-20T04:13:39;11.83;;;9.20;;
850;SDS011;412;51.400;7.480;2023-02-20T04:16:06;9.80;;;8.80;;
850;SDS011;412;51.400;7.480;2023-02-20T04:18:32;13.20;;;9.57;;
850;SDS011;412;51.400;7.480;2023-02-20T04:20:59;12.47;;;9.43;;
850;SDS011;412;51.400;7.480;2023-02-20T04:23:28;9.80;;;8.80;;
850;SDS011;412;51.400;7.480;2023-02-20T04:26:00;11.60;;;9.27;;
850;SDS011;412;51.400;7.480;2023-02-20T04:28:30;12.10;;;9.40;;
850;SDS011;412;51.400;7.480;2023-02-20T04:30:56;10.97;;;8.63;;
850;SDS011;412;51.400;7.480;2023-02-20T04:33:21;12.57;;;9.03;;
850;SDS011;412;51.400;7.480;2023-02-20T04:35:48;14.87;;;9.80;;
850;SDS011;412;51.400;7.480;2023-02-20T04:38:13;10.10;;;8.63;;
850;SDS011;412;51.400;7.480;2023-02-20T04:40:39;9.27;;;8.27;;
850;SDS011;412;51.400;7.480;2023-02-20T04:43:05;10.80;;;8.97;;
850;SDS011;412;51.400;7.480;2023-02-20T04:45:31;10.80;;;8.63;;
850;SDS011;412;51.400;7.480;2023-02-20T04:47:56;14.40;;;9.30;;
850;SDS011;412;51.400;7.480;2023-02-20T04:50:29;11.90;;;9.00;;
850;SDS011;412;51.400;7.480;2023-02-20T04:52:57;10.97;;;7.97;;
850;SDS011;412;51.400;7.480;2023-02-20T04:55:23;9.73;;;8.27;;
850;SDS011;412;51.400;7.480;2023-02-20T04:57:50;9.63;;;7.80;;
850;SDS011;412;51.400;7.480;2023-02-20T05:00:17;9.20;;;7.60;;
850;SDS011;412;51.400;7.480;2023-02-20T05:02:45;9.97;;;7.13;;
850;SDS011;412;51.400;7.480;2023-02-20T05:05:15;15.20;;;9.23;;
850;SDS011;412;51.400;7.480;2023-02-20T05:07:43;12.37;;;8.53;;
850;SDS011;412;51.400;7.480;2023-02-20T05:10:12;10.43;;;7.37;;
850;SDS011;412;51.400;7.480;2023-02-20T05:12:42;8.97;;;7.53;;
850;SDS011;412;51.400;7.480;2023-02-20T05:15:08;8.30;;;6.83;;
850;SDS011;412;51.400;7.480;2023-02-20T05:17:34;8.13;;;6.90;;
850;SDS011;412;51.400;7.480;2023-02-20T05:20:00;10.73;;;7.70;;
850;SDS011;412;51.400;7.480;2023-02-20T05:22:25;9.60;;;7.30;;
850;SDS011;412;51.400;7.480;2023-02-20T05:24:51;9.47;;;7.20;;
850;SDS011;412;51.400;7.480;2023-02-20T05:27:18;10.63;;;7.73;;
850;SDS011;412;51.400;7.480;2023-02-20T05:29:46;8.20;;;6.87;;
850;SDS011;412;51.400;7.480;2023-02-20T05:32:14;12.00;;;7.00;;
850;SDS011;412;51.400;7.480;2023-02-20T05:34:41;9.23;;;6.43;;
850;SDS011;412;51.400;7.480;2023-02-20T05:37:08;7.93;;;6.87;;
850;SDS011;412;51.400;7.480;2023-02-20T05:39:34;7.40;;;5.83;;
850;SDS011;412;51.400;7.480;2023-02-20T05:42:00;11.30;;;7.40;;
850;SDS011;412;51.400;7.480;2023-02-20T05:44:25;8.63;;;6.73;;
850;SDS011;412;51.400;7.480;2023-02-20T05:46:51;7.53;;;6.43;;
850;SDS011;412;51.400;7.480;2023-02-20T05:49:18;8.87;;;7.00;;
850;SDS011;412;51.400;7.480;2023-02-20T05:51:44;6.97;;;6.27;;
850;SDS011;412;51.400;7.480;2023-02-20T05:54:10;9.70;;;7.13;;
850;SDS011;412;51.400;7.480;2023-02-20T05:56:39;9.23;;;7.70;;
850;SDS011;412;51.400;7.480;2023-02-20T05:59:06;8.50;;;6.20;;
850;SDS011;412;51.400;7.480;2023-02-20T06:01:32;9.07;;;7.20;;
850;SDS011;412;51.400;7.480;2023-02-20T06:03:58;8.57;;;7.70;;
850;SDS011;412;51.400;7.480;2023-02-20T06:06:30;7.90;;;6.90;;
850;SDS011;412;51.400;7.480;2023-02-20T06:08:59;8.87;;;6.93;;
850;SDS011;412;51.400;7.480;2023-02-20T06:11:25;10.23;;;7.20;;
850;SDS011;412;51.400;7.480;2023-02-20T06:13:51;10.20;;;7.23;;
850;SDS011;412;51.400;7.480;2023-02-20T06:16:23;6.47;;;5.80;;
850;SDS011;412;51.400;7.480;2023-02-20T06:18:50;9.67;;;8.37;;
850;SDS011;412;51.400;7.480;2023-02-20T06:21:16;9.17;;;7.23;;
850;SDS011;412;51.400;7.480;2023-02-20T06:23:42;7.13;;;5.93;;
850;SDS011;412;51.400;7.480;2023-02-20T06:26:11;10.63;;;6.73;;
850;SDS011;412;51.400;7.480;2023-02-20T06:28:38;7.80;;;6.50;;
850;SDS011;412;51.400;7.480;2023-02-20T06:31:05;11.73;;;6.33;;
850;SDS011;412;51.400;7.480;2023-02-20T06:33:31;8.97;;;6.20;;
850;SDS011;412;51.400;7.480;2023-02-20T06:35:57;6.87;;;5.80;;
850;SDS011;412;51.400;7.480;2023-02-20T06:38:23;10.17;;;6.27;;
850;SDS011;412;51.400;7.480;2023-02-20T06:40:48;7.33;;;6.30;;
850;SDS011;412;51.400;7.480;2023-02-20T06:43:14;10.83;;;6.20;;
850;SDS011;412;51.400;7.480;2023-02-20T06:45:40;6.37;;;5.77;;
850;SDS011;412;51.400;7.480;2023-02-20T06:48:06;7.50;;;6.40;;
850;SDS011;412;51.400;7.480;2023-02-20T06:50:31;6.87;;;5.93;;
850;SDS011;412;51.400;7.480;2023-02-20T06:52:57;9.10;;;6.63;;
850;SDS011;412;51.400;7.480;2023-02-20T06:55:23;9.13;;;7.47;;
850;SDS011;412;51.400;7.480;2023-02-20T06:57:49;9.30;;;8.10;;
850;SDS011;412;51.400;7.480;2023-02-20T07:00:15;16.43;;;8.27;;
850;SDS011;412;51.400;7.480;2023-02-20T07:02:42;6.97;;;6.00;;
850;SDS011;412;51.400;7.480;2023-02-20T07:05:08;7.53;;;6.93;;
850;SDS011;412;51.400;7.480;2023-02-20T07:07:35;9.77;;;7.50;;
850;SDS011;412;51.400;7.480;2023-02-20T07:10:02;9.23;;;7.57;;
850;SDS011;412;51.400;7.480;2023-02-20T07:12:30;13.03;;;9.60;;
850;SDS011;412;51.400;7.480;2023-02-20T07:14:57;12.77;;;9.03;;
850;SDS011;412;51.400;7.480;2023-02-20T07:17:22;12.30;;;10.47;;
850;SDS011;412;51.400;7.480;2023-02-20T07:19:48;9.03;;;8.10;;
850;SDS011;412;51.400;7.480;2023-02-20T07:22:14;11.50;;;10.30;;
850;SDS011;412;51.400;7.480;2023-02-20T07:24:39;11.87;;;10.67;;
850;SDS011;412;51.400;7.480;2023-02-20T07:27:08;14.07;;;10.50;;
850;SDS011;412;51.400;7.480;2023-02-20T07:29:38;12.90;;;10.40;;
850;SDS011;412;51.400;7.480;2023-02-20T07:32:05;11.80;;;10.47;;
850;SDS011;412;51.400;7.480;2023-02-20T07:34:33;15.17;;;10.67;;
850;SDS011;412;51.400;7.480;2023-02-20T07:36:58;10.93;;;9.80;;
850;SDS011;412;51.400;7.480;2023-02-20T07:39:25;14.33;;;10.60;;
850;SDS011;412;51.400;7.480;2023-02-20T07:41:54;11.10;;;9.90;;
850;SDS011;412;51.400;7.480;2023-02-20T07:44:19;13.40;;;10.30;;
850;SDS011;412;51.400;7.480;2023-02-20T07:46:45;11.77;;;10.50;;
850;SDS011;412;51.400;7.480;2023-02-20T07:49:11;13.10;;;10.47;;
850;SDS011;412;51.400;7.480;2023-02-20T07:51:36;12.13;;;10.57;;
850;SDS011;412;51.400;7.480;2023-02-20T07:54:02;10.83;;;9.70;;
850;SDS011;412;51.400;7.480;2023-02-20T07:56:28;12.73;;;10.20;;
850;SDS011;412;51.400;7.480;2023-02-20T07:58:54;13.53;;;10.97;;
850;SDS011;412;51.400;7.480;2023-02-20T08:01:20;14.80;;;10.50;;
850;SDS011;412;51.400;7.480;2023-02-20T08:03:46;12.03;;;10.80;;
850;SDS011;412;51.400;7.480;2023-02-20T08:06:15;15.20;;;10.50;;
850;SDS011;412;51.400;7.480;2023-02-20T08:08:45;11.40;;;10.20;;
850;SDS011;412;51.400;7.480;2023-02-20T08:11:14;13.13;;;10.30;;
850;SDS011;412;51.400;7.480;2023-02-20T08:13:41;12.93;;;9.80;;
850;SDS011;412;51.400;7.480;2023-02-20T08:16:08;10.87;;;9.37;;
850;SDS011;412;51.400;7.480;2023-02-20T08:18:35;10.70;;;9.60;;
850;SDS011;412;51.400;7.480;2023-02-20T08:21:00;12.73;;;9.67;;
850;SDS011;412;51.400;7.480;2023-02-20T08:23:26;10.13;;;9.10;;
850;SDS011;412;51.400;7.480;2023-02-20T08:25:52;10.47;;;9.00;;
850;SDS011;412;51.400;7.480;2023-02-20T08:28:18;11.77;;;8.93;;
850;SDS011;412;51.400;7.480;2023-02-20T08:30:44;10.23;;;9.23;;
850;SDS011;412;51.400;7.480;2023-02-20T08:33:10;13.90;;;10.50;;
850;SDS011;412;51.400;7.480;2023-02-20T08:35:36;11.43;;;10.33;;
850;SDS011;412;51.400;7.480;2023-02-20T08:38:03;15.77;;;10.47;;
850;SDS011;412;51.400;7.480;2023-02-20T08:40:30;16.37;;;11.23;;
850;SDS011;412;51.400;7.480;2023-02-20T08:42:56;11.63;;;10.53;;
850;SDS011;412;51.400;7.480;2023-02-20T08:45:23;15.57;;;10.80;;
850;SDS011;412;51.400;7.480;2023-02-20T08:47:48;11.70;;;10.60;;
850;SDS011;412;51.400;7.480;2023-02-20T08:50:15;12.20;;;10.80;;
850;SDS011;412;51.400;7.480;2023-02-20T08:52:42;12.83;;;9.83;;
850;SDS011;412;51.400;7.480;2023-02-20T08:55:11;14.70;;;10.27;;
850;SDS011;412;51.400;7.480;2023-02-20T08:57:37;11.73;;;9.90;;
850;SDS011;412;51.400;7.480;2023-02-20T09:00:06;12.20;;;10.90;;
850;SDS011;412;51.400;7.480;2023-02-20T09:02:34;11.10;;;10.07;;
850;SDS011;412;51.400;7.480;2023-02-20T09:05:00;11.03;;;9.70;;
850;SDS011;412;51.400;7.480;2023-02-20T09:07:26;10.27;;;9.20;;
850;SDS011;412;51.400;7.480;2023-02-20T09:09:51;12.43;;;10.50;;
850;SDS011;412;51.400;7.480;2023-02-20T09:12:17;13.40;;;10.63;;
850;SDS011;412;51.400;7.480;2023-02-20T09:14:43;12.17;;;9.60;;
850;SDS011;412;51.400;7.480;2023-02-20T09:17:09;12.83;;;10.43;;
850;SDS011;412;51.400;7.480;2023-02-20T09:19:35;14.30;;;10.97;;
850;SDS011;412;51.400;7.480;2023-02-20T09:22:01;15.63;;;10.27;;
850;SDS011;412;51.400;7.480;2023-02-20T09:24:27;13.00;;;10.93;;
850;SDS011;412;51.400;7.480;2023-02-20T09:26:59;13.13;;;10.87;;
850;SDS011;412;51.400;7.480;2023-02-20T09:29:25;14.40;;;12.90;;
850;SDS011;412;51.400;7.480;2023-02-20T09:31:51;15.27;;;11.73;;
850;SDS011;412;51.400;7.480;2023-02-20T09:34:17;12.80;;;11.30;;
850;SDS011;412;51.400;7.480;2023-02-20T09:36:43;12.97;;;11.57;;
850;SDS011;412;51.400;7.480;2023-02-20T09:39:09;16.43;;;12.80;;
850;SDS011;412;51.400;7.480;2023-02-20T09:50:14;15.53;;;11.93;;
850;SDS011;412;51.400;7.480;2023-02-20T09:52:49;14.20;;;11.70;;
850;SDS011;412;51.400;7.480;2023-02-20T09:55:23;13.17;;;11.07;;
850;SDS011;412;51.400;7.480;2023-02-20T09:58:00;12.20;;;11.00;;
850;SDS011;412;51.400;7.480;2023-02-20T10:00:29;17.80;;;12.53;;
850;SDS011;412;51.400;7.480;2023-02-20T10:03:12;16.20;;;11.13;;
850;SDS011;412;51.400;7.480;2023-02-20T10:05:44;13.60;;;11.83;;
850;SDS011;412;51.400;7.480;2023-02-20T10:08:10;15.07;;;11.37;;
850;SDS011;412;51.400;7.480;2023-02-20T10:10:41;17.07;;;13.70;;
850;SDS011;412;51.400;7.480;2023-02-20T10:23:47;18.53;;;13.97;;
850;SDS011;412;51.400;7.480;2023-02-20T10:26:25;19.37;;;13.20;;
850;SDS011;412;51.400;7.480;2023-02-20T10:28:54;21.27;;;13.17;;
850;SDS011;412;51.400;7.480;2023-02-20T10:34:13;15.43;;;12.60;;
850;SDS011;412;51.400;7.480;2023-02-20T10:37:10;15.53;;;13.93;;
850;SDS011;412;51.400;7.480;2023-02-20T10:39:55;19.03;;;13.67;;
850;SDS011;412;51.400;7.480;2023-02-20T10:42:31;16.40;;;12.70;;
850;SDS011;412;51.400;7.480;2023-02-20T10:47:45;16.77;;;13.57;;
850;SDS011;412;51.400;7.480;2023-02-20T10:50:19;19.27;;;13.30;;
850;SDS011;412;51.400;7.480;2023-02-20T10:55:23;14.83;;;13.27;;
850;SDS011;412;51.400;7.480;2023-02-20T10:58:08;14.23;;;12.50;;
850;SDS011;412;51.400;7.480;2023-02-20T11:01:20;13.13;;;11.73;;
850;SDS011;412;51.400;7.480;2023-02-20T11:03:46;15.93;;;12.20;;
850;SDS011;412;51.400;7.480;2023-02-20T11:06:20;18.13;;;14.17;;
850;SDS011;412;51.400;7.480;2023-02-20T11:08:51;19.50;;;12.57;;
850;SDS011;412;51.400;7.480;2023-02-20T11:11:21;16.60;;;13.50;;
850;SDS011;412;51.400;7.480;2023-02-20T11:13:59;20.40;;;14.10;;
850;SDS011;412;51.400;7.480;2023-02-20T11:16:28;17.10;;;13.87;;
850;SDS011;412;51.400;7.480;2023-02-20T11:19:01;16.30;;;12.37;;
850;SDS011;412;51.400;7.480;2023-02-20T11:21:33;17.83;;;13.20;;
850;SDS011;412;51.400;7.480;2023-02-20T11:24:46;18.83;;;13.20;;
850;SDS011;412;51.400;7.480;2023-02-20T11:27:01;15.27;;;12.33;;
850;SDS011;412;51.400;7.480;2023-02-20T11:29:31;15.10;;;12.10;;
850;SDS011;412;51.400;7.480;2023-02-20T11:37:41;15.73;;;13.23;;
850;SDS011;412;51.400;7.480;2023-02-20T11:42:53;14.77;;;11.90;;
850;SDS011;412;51.400;7.480;2023-02-20T11:45:23;14.40;;;12.07;;
850;SDS011;412;51.400;7.480;2023-02-20T11:48:07;15.80;;;12.10;;
850;SDS011;412;51.400;7.480;2023-02-20T11:53:20;17.10;;;13.33;;
850;SDS011;412;51.400;7.480;2023-02-20T11:55:46;14.50;;;12.87;;
850;SDS011;412;51.400;7.480;2023-02-20T11:58:20;18.33;;;13.13;;
850;SDS011;412;51.400;7.480;2023-02-20T12:00:50;13.07;;;11.67;;
850;SDS011;412;51.400;7.480;2023-02-20T12:03:21;17.53;;;13.30;;
850;SDS011;412;51.400;7.480;2023-02-20T12:05:49;16.97;;;13.37;;
850;SDS011;412;51.400;7.480;2023-02-20T12:08:50;18.03;;;12.80;;
850;SDS011;412;51.400;7.480;2023-02-20T12:11:20;19.10;;;12.10;;
850;SDS011;412;51.400;7.480;2023-02-20T12:13:50;16.40;;;12.57;;
850;SDS011;412;51.400;7.480;2023-02-20T12:28:19;14.37;;;12.00;;
850;SDS011;412;51.400;7.480;2023-02-20T12:31:03;15.53;;;12.40;;
850;SDS011;412;51.400;7.480;2023-02-20T12:33:54;13.67;;;10.70;;
850;SDS011;412;51.400;7.480;2023-02-20T12:36:26;13.70;;;11.90;;
850;SDS011;412;51.400;7.480;2023-02-20T12:39:14;17.60;;;11.50;;
850;SDS011;412;51.400;7.480;2023-02-20T12:47:33;13.47;;;10.00;;
850;SDS011;412;51.400;7.480;2023-02-20T13:01:06;14.07;;;10.07;;
850;SDS011;412;51.400;7.480;2023-02-20T13:06:23;10.63;;;8.73;;
850;SDS011;412;51.400;7.480;2023-02-20T13:09:02;14.90;;;11.20;;
850;SDS011;412;51.400;7.480;2023-02-20T13:11:33;15.53;;;9.97;;
850;SDS011;412;51.400;7.480;2023-02-20T13:14:07;16.27;;;11.50;;
850;SDS011;412;51.400;7.480;2023-02-20T13:16:47;12.87;;;9.63;;
850;SDS011;412;51.400;7.480;2023-02-20T13:19:29;11.53;;;9.00;;
850;SDS011;412;51.400;7.480;2023-02-20T13:22:04;12.00;;;9.30;;
850;SDS011;412;51.400;7.480;2023-02-20T13:24:34;12.47;;;10.27;;
850;SDS011;412;51.400;7.480;2023-02-20T13:27:07;11.37;;;9.50;;
850;SDS011;412;51.400;7.480;2023-02-20T13:29:36;12.23;;;9.07;;
850;SDS011;412;51.400;7.480;2023-02-20T13:34:41;14.33;;;10.50;;
850;SDS011;412;51.400;7.480;2023-02-20T13:38:09;13.07;;;10.17;;
850;SDS011;412;51.400;7.480;2023-02-20T13:45:45;13.57;;;10.60;;
850;SDS011;412;51.400;7.480;2023-02-20T13:48:19;14.70;;;11.17;;
850;SDS011;412;51.400;7.480;2023-02-20T13:53:48;14.40;;;10.60;;
850;SDS011;412;51.400;7.480;2023-02-20T13:56:21;15.13;;;10.23;;
850;SDS011;412;51.400;7.480;2023-02-20T13:58:49;14.00;;;11.50;;
850;SDS011;412;51.400;7.480;2023-02-20T14:01:17;14.87;;;11.50;;
850;SDS011;412;51.400;7.480;2023-02-20T14:03:43;16.20;;;10.10;;
850;SDS011;412;51.400;7.480;2023-02-20T14:06:10;14.80;;;11.70;;
850;SDS011;412;51.400;7.480;2023-02-20T14:08:38;12.10;;;10.43;;
850;SDS011;412;51.400;7.480;2023-02-20T14:11:10;13.43;;;11.70;;
850;SDS011;412;51.400;7.480;2023-02-20T14:13:55;15.63;;;10.20;;
850;SDS011;412;51.400;7.480;2023-02-20T14:16:32;17.47;;;11.23;;
850;SDS011;412;51.400;7.480;2023-02-20T14:21:44;13.33;;;10.37;;
850;SDS011;412;51.400;7.480;2023-02-20T14:26:43;14.33;;;11.00;;
850;SDS011;412;51.400;7.480;2023-02-20T14:29:27;13.73;;;11.00;;
850;SDS011;412;51.400;7.480;2023-02-20T14:31:56;15.10;;;10.50;;
850;SDS011;412;51.400;7.480;2023-02-20T14:34:29;14.40;;;10.13;;
850;SDS011;412;51.400;7.480;2023-02-20T14:43:11;13.30;;;10.37;;
850;SDS011;412;51.400;7.480;2023-02-20T14:45:46;14.50;;;9.63;;
850;SDS011;412;51.400;7.480;2023-02-20T14:48:24;14.63;;;11.13;;
850;SDS011;412;51.400;7.480;2023-02-20T14:53:45;15.63;;;11.33;;
850;SDS011;412;51.400;7.480;2023-02-20T14:56:22;11.80;;;10.33;;
850;SDS011;412;51.400;7.480;2023-02-20T14:58:48;15.07;;;10.90;;
850;SDS011;412;51.400;7.480;2023-02-20T15:04:21;20.90;;;12.17;;
850;SDS011;412;51.400;7.480;2023-02-20T15:06:48;14.10;;;11.10;;
850;SDS011;412;51.400;7.480;2023-02-20T15:09:16;15.10;;;11.60;;
850;SDS011;412;51.400;7.480;2023-02-20T15:11:50;16.10;;;11.73;;
850;SDS011;412;51.400;7.480;2023-02-20T15:14:21;17.40;;;12.20;;
850;SDS011;412;51.400;7.480;2023-02-20T15:17:04;17.40;;;11.53;;
850;SDS011;412;51.400;7.480;2023-02-20T15:19:39;17.87;;;11.90;;
850;SDS011;412;51.400;7.480;2023-02-20T15:22:19;19.40;;;11.47;;
850;SDS011;412;51.400;7.480;2023-02-20T15:24:50;16.17;;;11.50;;
850;SDS011;412;51.400;7.480;2023-02-20T15:27:17;17.63;;;12.60;;
850;SDS011;412;51.400;7.480;2023-02-20T15:30:06;16.70;;;12.10;;
850;SDS011;412;51.400;7.480;2023-02-20T15:32:40;15.57;;;11.57;;
850;SDS011;412;51.400;7.480;2023-02-20T15:35:13;21.10;;;12.27;;
850;SDS011;412;51.400;7.480;2023-02-20T15:37:41;17.33;;;11.53;;
850;SDS011;412;51.400;7.480;2023-02-20T15:40:21;12.77;;;9.80;;
850;SDS011;412;51.400;7.480;2023-02-20T15:42:48;17.90;;;12.20;;
850;SDS011;412;51.400;7.480;2023-02-20T15:45:20;20.40;;;11.63;;
850;SDS011;412;51.400;7.480;2023-02-20T15:47:53;18.50;;;11.67;;
850;SDS011;412;51.400;7.480;2023-02-20T15:50:19;15.00;;;11.27;;
850;SDS011;412;51.400;7.480;2023-02-20T15:52:45;15.60;;;10.97;;
850;SDS011;412;51.400;7.480;2023-02-20T15:55:15;21.20;;;12.23;;
850;SDS011;412;51.400;7.480;2023-02-20T15:57:44;17.00;;;12.17;;
850;SDS011;412;51.400;7.480;2023-02-20T16:00:22;15.87;;;11.50;;
850;SDS011;412;51.400;7.480;2023-02-20T16:02:50;18.53;;;12.40;;
850;SDS011;412;51.400;7.480;2023-02-20T16:05:16;16.50;;;11.43;;
850;SDS011;412;51.400;7.480;2023-02-20T16:07:42;16.60;;;11.77;;
850;SDS011;412;51.400;7.480;2023-02-20T16:10:09;17.10;;;12.43;;
850;SDS011;412;51.400;7.480;2023-02-20T16:12:35;23.90;;;12.40;;
850;SDS011;412;51.400;7.480;2023-02-20T16:15:02;16.23;;;12.20;;
850;SDS011;412;51.400;7.480;2023-02-20T16:17:31;19.10;;;13.33;;
850;SDS011;412;51.400;7.480;2023-02-20T16:19:59;14.93;;;11.47;;
850;SDS011;412;51.400;7.480;2023-02-20T16:22:25;17.50;;;12.70;;
850;SDS011;412;51.400;7.480;2023-02-20T16:24:50;17.47;;;12.03;;
850;SDS011;412;51.400;7.480;2023-02-20T16:27:23;21.73;;;12.73;;
850;SDS011;412;51.400;7.480;2023-02-20T16:29:51;18.17;;;12.60;;
850;SDS011;412;51.400;7.480;2023-02-20T16:32:22;16.80;;;12.30;;
850;SDS011;412;51.400;7.480;2023-02-20T16:34:49;18.70;;;13.63;;
850;SDS011;412;51.400;7.480;2023-02-20T16:37:16;16.57;;;12.00;;
850;SDS011;412;51.400;7.480;2023-02-20T16:39:42;17.07;;;12.40;;
850;SDS011;412;51.400;7.480;2023-02-20T16:44:58;18.03;;;13.00;;
850;SDS011;412;51.400;7.480;2023-02-20T16:47:27;19.37;;;12.70;;
850;SDS011;412;51.400;7.480;2023-02-20T16:49:55;16.30;;;12.03;;
850;SDS011;412;51.400;7.480;2023-02-20T16:52:26;18.77;;;13.37;;
850;SDS011;412;51.400;7.480;2023-02-20T16:54:55;15.40;;;12.73;;
850;SDS011;412;51.400;7.480;2023-02-20T16:57:21;20.23;;;13.47;;
850;SDS011;412;51.400;7.480;2023-02-20T16:59:51;17.60;;;13.20;;
850;SDS011;412;51.400;7.480;2023-02-20T17:02:21;15.13;;;12.00;;
850;SDS011;412;51.400;7.480;2023-02-20T17:04:48;21.53;;;15.23;;
850;SDS011;412;51.400;7.480;2023-02-20T17:07:15;15.93;;;12.60;;
850;SDS011;412;51.400;7.480;2023-02-20T17:09:41;19.23;;;12.10;;
850;SDS011;412;51.400;7.480;2023-02-20T17:12:07;19.13;;;12.63;;
850;SDS011;412;51.400;7.480;2023-02-20T17:14:33;17.77;;;12.83;;
850;SDS011;412;51.400;7.480;2023-02-20T17:16:59;19.63;;;13.73;;
850;SDS011;412;51.400;7.480;2023-02-20T17:19:25;18.53;;;14.20;;
850;SDS011;412;51.400;7.480;2023-02-20T17:21:51;19.00;;;13.47;;
850;SDS011;412;51.400;7.480;2023-02-20T17:24:17;18.90;;;13.00;;
850;SDS011;412;51.400;7.480;2023-02-20T17:26:44;19.10;;;13.00;;
850;SDS011;412;51.400;7.480;2023-02-20T17:29:10;18.50;;;12.80;;
850;SDS011;412;51.400;7.480;2023-02-20T17:31:37;17.03;;;12.10;;
850;SDS011;412;51.400;7.480;2023-02-20T17:34:04;18.77;;;13.07;;
850;SDS011;412;51.400;7.480;2023-02-20T17:36:30;19.63;;;13.90;;
850;SDS011;412;51.400;7.480;2023-02-20T17:38:56;16.60;;;13.13;;